sensor_id;sensor_type;location;lat;lon;timestamp;pressure;altitude;pressure_sealevel;temperature;humidity
15678;BME280;7939;50.814;6.368;2022-08-21T00:02:13;100076.47;;;23.33;49.12
15678;BME280;7939;50.814;6.368;2022-08-21T00:04:40;100078.22;;;23.32;49.05
15678;BME280;7939;50.814;6.368;2022-08-21T00:07:07;100069.63;;;23.30;49.25
15678;BME280;7939;50.814;6.368;2022-08-21T00:09:33;100071.38;;;23.30;49.35
15678;BME280;7939;50.814;6.368;2022-08-21T00:12:00;100072.38;;;23.27;49.23
15678;BME280;7939;50.814;6.368;2022-08-21T00:14:28;100068.09;;;23.26;49.42
15678;BME280;7939;50.814;6.368;2022-08-21T00:16:55;100065.53;;;23.25;49.35
15678;BME280;7939;50.814;6.368;2022-08-21T00:19:21;100060.31;;;23.25;49.41
15678;BME280;7939;50.814;6.368;2022-08-21T00:21:50;100056.94;;;23.23;49.37
15678;BME280;7939;50.814;6.368;2022-08-21T00:24:17;100057.88;;;23.22;49.37
15678;BME280;7939;50.814;6.368;2022-08-21T00:26:44;100050.97;;;23.21;49.74
15678;BME280;7939;50.814;6.368;2022-08-21T00:29:11;100051.94;;;23.18;49.39
15678;BME280;7939;50.814;6.368;2022-08-21T00:31:40;100049.41;;;23.17;49.79
15678;BME280;7939;50.814;6.368;2022-08-21T00:34:06;100051.19;;;23.16;49.70
15678;BME280;7939;50.814;6.368;2022-08-21T00:36:33;100052.19;;;23.13;49.43
15678;BME280;7939;50.814;6.368;2022-08-21T00:39:00;100046.19;;;23.11;49.71
15678;BME280;7939;50.814;6.368;2022-08-21T00:41:27;100043.56;;;23.11;49.98
15678;BME280;7939;50.814;6.368;2022-08-21T00:43:54;100045.41;;;23.09;49.38
15678;BME280;7939;50.814;6.368;2022-08-21T00:46:20;100037.59;;;23.09;49.97
15678;BME280;7939;50.814;6.368;2022-08-21T00:48:48;100046.34;;;23.08;49.71
15678;BME280;7939;50.814;6.368;2022-08-21T00:51:17;100039.44;;;23.07;49.94
15678;BME280;7939;50.814;6.368;2022-08-21T00:53:50;100038.66;;;23.05;49.89
15678;BME280;7939;50.814;6.368;2022-08-21T00:56:19;100030.91;;;23.04;49.81
15678;BME280;7939;50.814;6.368;2022-08-21T00:58:47;100036.13;;;23.04;50.13
15678;BME280;7939;50.814;6.368;2022-08-21T01:01:14;100032.69;;;23.03;50.05
15678;BME280;7939;50.814;6.368;2022-08-21T01:03:41;100033.59;;;23.02;50.06
15678;BME280;7939;50.814;6.368;2022-08-21T01:06:09;100031.00;;;23.02;49.81
15678;BME280;7939;50.814;6.368;2022-08-21T01:08:35;100031.00;;;23.02;49.69
15678;BME280;7939;50.814;6.368;2022-08-21T01:11:03;100033.69;;;23.01;49.81
15678;BME280;7939;50.814;6.368;2022-08-21T01:13:34;100025.06;;;22.99;50.01
15678;BME280;7939;50.814;6.368;2022-08-21T01:16:03;100030.34;;;22.97;49.99
15678;BME280;7939;50.814;6.368;2022-08-21T01:18:31;100032.19;;;22.95;50.08
15678;BME280;7939;50.814;6.368;2022-08-21T01:21:05;100037.41;;;22.95;50.43
15678;BME280;7939;50.814;6.368;2022-08-21T01:23:33;100037.53;;;22.92;50.14
15678;BME280;7939;50.814;6.368;2022-08-21T01:26:00;100039.31;;;22.92;50.38
15678;BME280;7939;50.814;6.368;2022-08-21T01:28:27;100034.16;;;22.90;50.21
15678;BME280;7939;50.814;6.368;2022-08-21T01:30:58;100033.34;;;22.90;50.32
15678;BME280;7939;50.814;6.368;2022-08-21T01:33:26;100036.84;;;22.88;50.62
15678;BME280;7939;50.814;6.368;2022-08-21T01:35:53;100036.91;;;22.87;50.41
15678;BME280;7939;50.814;6.368;2022-08-21T01:38:21;100042.13;;;22.87;50.44
15678;BME280;7939;50.814;6.368;2022-08-21T01:40:48;100030.97;;;22.83;50.68
15678;BME280;7939;50.814;6.368;2022-08-21T01:43:14;100034.44;;;22.84;50.42
15678;BME280;7939;50.814;6.368;2022-08-21T01:45:41;100035.34;;;22.83;50.49
15678;BME280;7939;50.814;6.368;2022-08-21T01:48:07;100026.69;;;22.82;50.78
15678;BME280;7939;50.814;6.368;2022-08-21T01:50:34;100029.41;;;22.79;50.54
15678;BME280;7939;50.814;6.368;2022-08-21T01:53:01;100026.88;;;22.78;50.64
15678;BME280;7939;50.814;6.368;2022-08-21T01:55:29;100021.75;;;22.76;50.69
15678;BME280;7939;50.814;6.368;2022-08-21T01:57:57;100024.41;;;22.75;50.63
15678;BME280;7939;50.814;6.368;2022-08-21T02:00:24;100022.72;;;22.74;50.62
15678;BME280;7939;50.814;6.368;2022-08-21T02:02:51;100025.34;;;22.74;50.72
15678;BME280;7939;50.814;6.368;2022-08-21T02:05:19;100019.34;;;22.72;50.93
15678;BME280;7939;50.814;6.368;2022-08-21T02:07:49;100028.09;;;22.71;50.92
15678;BME280;7939;50.814;6.368;2022-08-21T02:10:19;100024.66;;;22.70;50.83
15678;BME280;7939;50.814;6.368;2022-08-21T02:12:47;100029.00;;;22.70;50.87
15678;BME280;7939;50.814;6.368;2022-08-21T02:15:14;100024.69;;;22.69;50.91
15678;BME280;7939;50.814;6.368;2022-08-21T02:17:44;100026.44;;;22.68;50.74
15678;BME280;7939;50.814;6.368;2022-08-21T02:20:16;100021.31;;;22.67;51.14
15678;BME280;7939;50.814;6.368;2022-08-21T02:22:43;100014.44;;;22.66;51.03
15678;BME280;7939;50.814;6.368;2022-08-21T02:25:10;100014.44;;;22.66;50.89
15678;BME280;7939;50.814;6.368;2022-08-21T02:27:39;100017.94;;;22.65;50.54
15678;BME280;7939;50.814;6.368;2022-08-21T02:30:10;100024.09;;;22.64;51.06
15678;BME280;7939;50.814;6.368;2022-08-21T02:32:37;100014.56;;;22.62;51.09
15678;BME280;7939;50.814;6.368;2022-08-21T02:35:04;100014.63;;;22.61;51.02
15678;BME280;7939;50.814;6.368;2022-08-21T02:37:31;100019.84;;;22.61;51.14
15678;BME280;7939;50.814;6.368;2022-08-21T02:39:58;100020.75;;;22.60;51.11
15678;BME280;7939;50.814;6.368;2022-08-21T02:42:25;100024.28;;;22.59;51.15
15678;BME280;7939;50.814;6.368;2022-08-21T02:44:51;100026.13;;;22.57;51.12
15678;BME280;7939;50.814;6.368;2022-08-21T02:47:19;100021.81;;;22.56;51.19
15678;BME280;7939;50.814;6.368;2022-08-21T02:49:46;100020.19;;;22.53;51.42
15678;BME280;7939;50.814;6.368;2022-08-21T02:52:12;100024.56;;;22.53;51.24
15678;BME280;7939;50.814;6.368;2022-08-21T02:54:39;100025.47;;;22.52;51.18
15678;BME280;7939;50.814;6.368;2022-08-21T02:57:06;100021.13;;;22.52;51.28
15678;BME280;7939;50.814;6.368;2022-08-21T02:59:33;100019.44;;;22.51;51.17
15678;BME280;7939;50.814;6.368;2022-08-21T03:01:59;100018.63;;;22.49;51.24
15678;BME280;7939;50.814;6.368;2022-08-21T03:04:28;100016.94;;;22.48;51.07
15678;BME280;7939;50.814;6.368;2022-08-21T03:06:55;100036.94;;;22.48;51.10
15678;BME280;7939;50.814;6.368;2022-08-21T03:09:21;100024.84;;;22.47;51.17
15678;BME280;7939;50.814;6.368;2022-08-21T03:11:49;100031.88;;;22.45;51.19
15678;BME280;7939;50.814;6.368;2022-08-21T03:14:16;100027.56;;;22.44;51.02
15678;BME280;7939;50.814;6.368;2022-08-21T03:16:43;100024.19;;;22.42;51.14
15678;BME280;7939;50.814;6.368;2022-08-21T03:19:10;100022.50;;;22.41;51.29
15678;BME280;7939;50.814;6.368;2022-08-21T03:21:38;100018.22;;;22.40;51.16
15678;BME280;7939;50.814;6.368;2022-08-21T03:24:05;100012.22;;;22.38;51.45
15678;BME280;7939;50.814;6.368;2022-08-21T03:26:32;100010.53;;;22.37;51.20
15678;BME280;7939;50.814;6.368;2022-08-21T03:28:59;100017.50;;;22.36;51.26
15678;BME280;7939;50.814;6.368;2022-08-21T03:31:26;100015.88;;;22.33;51.38
15678;BME280;7939;50.814;6.368;2022-08-21T03:33:56;100012.44;;;22.33;51.35
15678;BME280;7939;50.814;6.368;2022-08-21T03:36:22;100015.97;;;22.32;51.24
15678;BME280;7939;50.814;6.368;2022-08-21T03:38:50;100015.16;;;22.30;51.43
15678;BME280;7939;50.814;6.368;2022-08-21T03:41:17;100016.09;;;22.29;51.21
15678;BME280;7939;50.814;6.368;2022-08-21T03:43:43;100018.69;;;22.29;51.22
15678;BME280;7939;50.814;6.368;2022-08-21T03:46:10;100017.91;;;22.27;51.45
15678;BME280;7939;50.814;6.368;2022-08-21T03:48:37;100014.47;;;22.26;51.42
15678;BME280;7939;50.814;6.368;2022-08-21T03:51:04;100011.91;;;22.25;51.62
15678;BME280;7939;50.814;6.368;2022-08-21T03:53:31;100018.03;;;22.24;51.23
15678;BME280;7939;50.814;6.368;2022-08-21T03:56:00;100021.56;;;22.23;51.47
15678;BME280;7939;50.814;6.368;2022-08-21T03:58:27;100030.22;;;22.23;51.60
15678;BME280;7939;50.814;6.368;2022-08-21T04:00:58;100033.81;;;22.21;51.44
15678;BME280;7939;50.814;6.368;2022-08-21T04:03:25;100035.63;;;22.19;51.82
15678;BME280;7939;50.814;6.368;2022-08-21T04:05:52;100038.22;;;22.19;51.65
15678;BME280;7939;50.814;6.368;2022-08-21T04:08:19;100033.94;;;22.18;51.69
15678;BME280;7939;50.814;6.368;2022-08-21T04:10:48;100038.38;;;22.16;51.70
15678;BME280;7939;50.814;6.368;2022-08-21T04:13:17;100034.94;;;22.15;51.62
15678;BME280;7939;50.814;6.368;2022-08-21T04:15:44;100036.69;;;22.15;51.75
15678;BME280;7939;50.814;6.368;2022-08-21T04:18:11;100042.81;;;22.14;51.53
15678;BME280;7939;50.814;6.368;2022-08-21T04:20:38;100042.81;;;22.14;51.86
15678;BME280;7939;50.814;6.368;2022-08-21T04:23:05;100045.44;;;22.12;52.06
15678;BME280;7939;50.814;6.368;2022-08-21T04:25:32;100042.91;;;22.11;51.91
15678;BME280;7939;50.814;6.368;2022-08-21T04:27:59;100044.69;;;22.10;51.80
15678;BME280;7939;50.814;6.368;2022-08-21T04:30:29;100041.28;;;22.08;51.61
15678;BME280;7939;50.814;6.368;2022-08-21T04:32:56;100047.31;;;22.08;51.64
15678;BME280;7939;50.814;6.368;2022-08-21T04:35:25;100053.44;;;22.07;51.70
15678;BME280;7939;50.814;6.368;2022-08-21T04:37:52;100050.88;;;22.06;51.58
15678;BME280;7939;50.814;6.368;2022-08-21T04:40:20;100048.28;;;22.06;51.80
15678;BME280;7939;50.814;6.368;2022-08-21T04:42:49;100046.66;;;22.03;51.70
15678;BME280;7939;50.814;6.368;2022-08-21T04:45:19;100045.84;;;22.03;51.69
15678;BME280;7939;50.814;6.368;2022-08-21T04:47:50;100047.66;;;22.01;51.73
15678;BME280;7939;50.814;6.368;2022-08-21T04:50:17;100040.75;;;22.00;51.85
15678;BME280;7939;50.814;6.368;2022-08-21T04:52:44;100046.81;;;22.00;51.76
15678;BME280;7939;50.814;6.368;2022-08-21T04:55:12;100048.53;;;22.00;51.69
15678;BME280;7939;50.814;6.368;2022-08-21T04:57:39;100044.25;;;21.99;51.83
15678;BME280;7939;50.814;6.368;2022-08-21T05:00:08;100042.66;;;21.96;51.79
15678;BME280;7939;50.814;6.368;2022-08-21T05:02:36;100042.56;;;21.98;51.55
15678;BME280;7939;50.814;6.368;2022-08-21T05:05:06;100040.03;;;21.96;51.77
15678;BME280;7939;50.814;6.368;2022-08-21T05:07:33;100037.50;;;21.95;51.62
15678;BME280;7939;50.814;6.368;2022-08-21T05:10:00;100033.16;;;21.95;51.85
15678;BME280;7939;50.814;6.368;2022-08-21T05:12:27;100035.81;;;21.94;51.75
15678;BME280;7939;50.814;6.368;2022-08-21T05:14:54;100044.47;;;21.94;51.78
15678;BME280;7939;50.814;6.368;2022-08-21T05:17:21;100040.16;;;21.93;51.80
15678;BME280;7939;50.814;6.368;2022-08-21T05:19:48;100039.31;;;21.93;51.83
15678;BME280;7939;50.814;6.368;2022-08-21T05:22:20;100053.25;;;21.92;51.55
15678;BME280;7939;50.814;6.368;2022-08-21T05:24:47;100054.16;;;21.91;51.56
15678;BME280;7939;50.814;6.368;2022-08-21T05:27:14;100054.16;;;21.91;51.67
15678;BME280;7939;50.814;6.368;2022-08-21T05:29:40;100051.63;;;21.89;51.46
15678;BME280;7939;50.814;6.368;2022-08-21T05:32:09;100062.03;;;21.89;51.76
15678;BME280;7939;50.814;6.368;2022-08-21T05:34:35;100057.75;;;21.88;51.45
15678;BME280;7939;50.814;6.368;2022-08-21T05:37:02;100056.91;;;21.88;51.52
15678;BME280;7939;50.814;6.368;2022-08-21T05:39:30;100066.44;;;21.87;51.50
15678;BME280;7939;50.814;6.368;2022-08-21T05:41:57;100060.38;;;21.87;51.54
15678;BME280;7939;50.814;6.368;2022-08-21T05:44:24;100062.16;;;21.86;51.62
15678;BME280;7939;50.814;6.368;2022-08-21T05:46:51;100062.16;;;21.86;51.37
15678;BME280;7939;50.814;6.368;2022-08-21T05:49:18;100067.34;;;21.86;51.42
15678;BME280;7939;50.814;6.368;2022-08-21T05:51:44;100066.50;;;21.86;51.45
15678;BME280;7939;50.814;6.368;2022-08-21T05:54:11;100056.09;;;21.86;51.45
15678;BME280;7939;50.814;6.368;2022-08-21T05:56:39;100060.47;;;21.85;51.30
15678;BME280;7939;50.814;6.368;2022-08-21T05:59:10;100058.69;;;21.86;51.25
15678;BME280;7939;50.814;6.368;2022-08-21T06:01:36;100052.66;;;21.85;51.20
15678;BME280;7939;50.814;6.368;2022-08-21T06:04:03;100054.34;;;21.86;51.24
15678;BME280;7939;50.814;6.368;2022-08-21T06:06:33;100049.97;;;21.87;51.33
15678;BME280;7939;50.814;6.368;2022-08-21T06:09:00;100052.59;;;21.87;51.24
15678;BME280;7939;50.814;6.368;2022-08-21T06:11:26;100047.38;;;21.87;51.24
15678;BME280;7939;50.814;6.368;2022-08-21T06:13:54;100049.13;;;21.86;51.34
15678;BME280;7939;50.814;6.368;2022-08-21T06:16:21;100049.09;;;21.88;51.37
15678;BME280;7939;50.814;6.368;2022-08-21T06:18:49;100042.19;;;21.87;51.23
15678;BME280;7939;50.814;6.368;2022-08-21T06:21:16;100046.50;;;21.88;51.31
15678;BME280;7939;50.814;6.368;2022-08-21T06:23:43;100054.31;;;21.88;51.37
15678;BME280;7939;50.814;6.368;2022-08-21T06:26:12;100052.53;;;21.88;51.48
15678;BME280;7939;50.814;6.368;2022-08-21T06:28:40;100049.09;;;21.88;51.15
15678;BME280;7939;50.814;6.368;2022-08-21T06:31:13;100046.50;;;21.88;51.33
15678;BME280;7939;50.814;6.368;2022-08-21T06:33:40;100052.53;;;21.88;51.22
15678;BME280;7939;50.814;6.368;2022-08-21T06:36:07;100056.84;;;21.89;51.23
15678;BME280;7939;50.814;6.368;2022-08-21T06:38:34;100057.69;;;21.90;51.14
15678;BME280;7939;50.814;6.368;2022-08-21T06:41:01;100055.06;;;21.90;51.39
15678;BME280;7939;50.814;6.368;2022-08-21T06:43:27;100064.56;;;21.91;51.18
15678;BME280;7939;50.814;6.368;2022-08-21T06:45:54;100056.75;;;21.91;51.39
15678;BME280;7939;50.814;6.368;2022-08-21T06:48:22;100062.81;;;21.91;51.26
15678;BME280;7939;50.814;6.368;2022-08-21T06:50:49;100057.59;;;21.91;51.53
15678;BME280;7939;50.814;6.368;2022-08-21T06:53:18;100054.09;;;21.92;51.34
15678;BME280;7939;50.814;6.368;2022-08-21T06:55:45;100060.22;;;21.91;51.01
15678;BME280;7939;50.814;6.368;2022-08-21T06:58:12;100061.06;;;21.92;51.28
15678;BME280;7939;50.814;6.368;2022-08-21T07:00:40;100060.97;;;21.93;51.15
15678;BME280;7939;50.814;6.368;2022-08-21T07:03:07;100067.94;;;21.93;50.94
15678;BME280;7939;50.814;6.368;2022-08-21T07:05:43;100073.16;;;21.93;50.90
15678;BME280;7939;50.814;6.368;2022-08-21T07:08:09;100067.06;;;21.94;51.10
15678;BME280;7939;50.814;6.368;2022-08-21T07:10:36;100069.59;;;21.95;50.97
15678;BME280;7939;50.814;6.368;2022-08-21T07:13:03;100067.81;;;21.96;50.91
15678;BME280;7939;50.814;6.368;2022-08-21T07:15:30;100064.38;;;21.95;50.98
15678;BME280;7939;50.814;6.368;2022-08-21T07:17:57;100054.75;;;21.97;50.84
15678;BME280;7939;50.814;6.368;2022-08-21T07:20:24;100056.50;;;21.97;50.92
15678;BME280;7939;50.814;6.368;2022-08-21T07:22:53;100057.28;;;21.99;50.86
15678;BME280;7939;50.814;6.368;2022-08-21T07:25:20;100059.03;;;21.98;51.00
15678;BME280;7939;50.814;6.368;2022-08-21T07:27:46;100059.84;;;22.00;50.78
15678;BME280;7939;50.814;6.368;2022-08-21T07:30:13;100066.75;;;22.00;50.90
15678;BME280;7939;50.814;6.368;2022-08-21T07:32:40;100060.69;;;22.01;50.67
15678;BME280;7939;50.814;6.368;2022-08-21T07:35:07;100063.22;;;22.02;50.86
15678;BME280;7939;50.814;6.368;2022-08-21T07:37:34;100067.56;;;22.02;50.79
15678;BME280;7939;50.814;6.368;2022-08-21T07:40:03;100065.81;;;22.02;50.79
15678;BME280;7939;50.814;6.368;2022-08-21T07:42:30;100054.56;;;22.02;50.53
15678;BME280;7939;50.814;6.368;2022-08-21T07:44:57;100057.00;;;22.05;50.55
15678;BME280;7939;50.814;6.368;2022-08-21T07:47:23;100059.56;;;22.06;50.80
15678;BME280;7939;50.814;6.368;2022-08-21T07:49:50;100063.91;;;22.06;49.81
15678;BME280;7939;50.814;6.368;2022-08-21T07:52:16;100065.75;;;22.04;49.58
15678;BME280;7939;50.814;6.368;2022-08-21T07:54:43;100069.19;;;22.04;49.88
15678;BME280;7939;50.814;6.368;2022-08-21T07:57:11;100056.97;;;22.06;50.04
15678;BME280;7939;50.814;6.368;2022-08-21T07:59:38;100051.69;;;22.08;50.16
15678;BME280;7939;50.814;6.368;2022-08-21T08:02:04;100051.66;;;22.10;49.90
15678;BME280;7939;50.814;6.368;2022-08-21T08:04:31;100048.06;;;22.12;49.98
15678;BME280;7939;50.814;6.368;2022-08-21T08:06:57;100045.44;;;22.12;50.07
15678;BME280;7939;50.814;6.368;2022-08-21T08:09:24;100037.53;;;22.15;49.75
15678;BME280;7939;50.814;6.368;2022-08-21T08:11:50;100043.56;;;22.16;49.65
15678;BME280;7939;50.814;6.368;2022-08-21T08:14:19;100041.75;;;22.18;49.82
15678;BME280;7939;50.814;6.368;2022-08-21T08:16:45;100039.88;;;22.21;49.68
15678;BME280;7939;50.814;6.368;2022-08-21T08:19:12;100034.50;;;22.24;49.70
15678;BME280;7939;50.814;6.368;2022-08-21T08:21:38;100037.91;;;22.26;49.87
15678;BME280;7939;50.814;6.368;2022-08-21T08:24:05;100033.34;;;22.31;48.98
15678;BME280;7939;50.814;6.368;2022-08-21T08:26:32;100038.56;;;22.31;48.86
15678;BME280;7939;50.814;6.368;2022-08-21T08:28:59;100028.91;;;22.33;49.19
15678;BME280;7939;50.814;6.368;2022-08-21T08:31:26;100040.84;;;22.38;49.35
15678;BME280;7939;50.814;6.368;2022-08-21T08:33:53;100032.94;;;22.41;49.28
15678;BME280;7939;50.814;6.368;2022-08-21T08:36:32;100042.22;;;22.46;49.27
15678;BME280;7939;50.814;6.368;2022-08-21T08:38:59;100031.72;;;22.48;49.28
15678;BME280;7939;50.814;6.368;2022-08-21T08:41:26;100019.34;;;22.53;48.58
15678;BME280;7939;50.814;6.368;2022-08-21T08:43:55;100020.00;;;22.58;48.55
15678;BME280;7939;50.814;6.368;2022-08-21T08:46:29;100028.50;;;22.61;48.80
15678;BME280;7939;50.814;6.368;2022-08-21T08:49:00;100017.88;;;22.66;48.71
15678;BME280;7939;50.814;6.368;2022-08-21T08:51:39;100030.63;;;22.72;48.69
15678;BME280;7939;50.814;6.368;2022-08-21T08:54:09;100026.16;;;22.74;48.60
15678;BME280;7939;50.814;6.368;2022-08-21T08:56:38;100020.84;;;22.77;48.55
15678;BME280;7939;50.814;6.368;2022-08-21T08:59:08;100025.75;;;22.83;48.39
15678;BME280;7939;50.814;6.368;2022-08-21T09:01:39;100021.22;;;22.88;48.33
15678;BME280;7939;50.814;6.368;2022-08-21T09:04:07;100020.13;;;22.93;48.43
15678;BME280;7939;50.814;6.368;2022-08-21T09:06:51;100016.56;;;22.95;48.46
15678;BME280;7939;50.814;6.368;2022-08-21T09:09:28;100017.97;;;23.02;48.40
15678;BME280;7939;50.814;6.368;2022-08-21T09:12:04;100009.94;;;23.07;48.32
15678;BME280;7939;50.814;6.368;2022-08-21T09:14:48;100008.00;;;23.10;48.54
15678;BME280;7939;50.814;6.368;2022-08-21T09:17:30;100006.03;;;23.15;48.05
15678;BME280;7939;50.814;6.368;2022-08-21T09:20:12;100013.63;;;23.20;48.26
15678;BME280;7939;50.814;6.368;2022-08-21T09:22:50;100009.81;;;23.27;47.96
15678;BME280;7939;50.814;6.368;2022-08-21T09:25:21;100008.66;;;23.33;47.93
15678;BME280;7939;50.814;6.368;2022-08-21T09:27:50;100004.13;;;23.36;48.09
15678;BME280;7939;50.814;6.368;2022-08-21T09:30:17;100009.13;;;23.41;47.63
15678;BME280;7939;50.814;6.368;2022-08-21T09:32:46;100007.91;;;23.48;48.00
15678;BME280;7939;50.814;6.368;2022-08-21T09:35:15;100004.28;;;23.51;47.91
15678;BME280;7939;50.814;6.368;2022-08-21T09:37:51;100003.13;;;23.56;47.87
15678;BME280;7939;50.814;6.368;2022-08-21T09:40:29;100008.91;;;23.63;47.48
15678;BME280;7939;50.814;6.368;2022-08-21T09:43:00;100002.53;;;23.68;47.43
15678;BME280;7939;50.814;6.368;2022-08-21T09:45:28;99998.88;;;23.73;47.93
15678;BME280;7939;50.814;6.368;2022-08-21T09:48:08;99999.63;;;23.75;47.75
15678;BME280;7939;50.814;6.368;2022-08-21T09:50:34;100002.09;;;23.78;47.32
15678;BME280;7939;50.814;6.368;2022-08-21T09:53:02;100004.31;;;23.85;47.63
15678;BME280;7939;50.814;6.368;2022-08-21T09:55:32;100002.31;;;23.90;47.10
15678;BME280;7939;50.814;6.368;2022-08-21T09:58:17;100002.00;;;23.97;47.59
15678;BME280;7939;50.814;6.368;2022-08-21T10:00:44;99998.97;;;24.04;47.12
15678;BME280;7939;50.814;6.368;2022-08-21T10:03:16;99990.91;;;24.09;47.15
15678;BME280;7939;50.814;6.368;2022-08-21T10:05:52;99996.75;;;24.14;47.11
15678;BME280;7939;50.814;6.368;2022-08-21T10:08:22;99992.19;;;24.17;47.30
15678;BME280;7939;50.814;6.368;2022-08-21T10:10:51;99987.47;;;24.24;46.75
15678;BME280;7939;50.814;6.368;2022-08-21T10:13:21;99978.66;;;24.27;46.77
15678;BME280;7939;50.814;6.368;2022-08-21T10:16:01;99978.38;;;24.31;46.81
15678;BME280;7939;50.814;6.368;2022-08-21T10:18:36;99976.50;;;24.35;46.71
15678;BME280;7939;50.814;6.368;2022-08-21T10:21:11;99976.31;;;24.38;46.89
15678;BME280;7939;50.814;6.368;2022-08-21T10:23:57;99973.56;;;24.41;46.65
15678;BME280;7939;50.814;6.368;2022-08-21T10:26:34;99974.16;;;24.46;46.59
15678;BME280;7939;50.814;6.368;2022-08-21T10:29:14;99966.06;;;24.51;46.66
15678;BME280;7939;50.814;6.368;2022-08-21T10:31:50;99971.88;;;24.56;46.25
15678;BME280;7939;50.814;6.368;2022-08-21T10:34:30;99968.31;;;24.57;46.20
15678;BME280;7939;50.814;6.368;2022-08-21T10:37:18;99970.69;;;24.61;46.66
15678;BME280;7939;50.814;6.368;2022-08-21T10:39:56;99967.06;;;24.64;46.33
15678;BME280;7939;50.814;6.368;2022-08-21T10:42:34;99961.78;;;24.65;46.47
15678;BME280;7939;50.814;6.368;2022-08-21T10:45:09;99957.97;;;24.71;46.09
15678;BME280;7939;50.814;6.368;2022-08-21T10:47:41;99959.56;;;24.73;46.16
15678;BME280;7939;50.814;6.368;2022-08-21T10:50:12;99976.84;;;24.76;46.06
15678;BME280;7939;50.814;6.368;2022-08-21T10:53:03;99969.59;;;24.81;45.76
15678;BME280;7939;50.814;6.368;2022-08-21T10:55:35;99962.44;;;24.85;45.87
15678;BME280;7939;50.814;6.368;2022-08-21T10:58:08;99970.94;;;24.88;45.52
15678;BME280;7939;50.814;6.368;2022-08-21T11:00:42;99968.06;;;24.93;45.57
15678;BME280;7939;50.814;6.368;2022-08-21T11:03:13;99964.34;;;24.97;45.10
15678;BME280;7939;50.814;6.368;2022-08-21T11:05:46;99958.19;;;24.98;44.83
15678;BME280;7939;50.814;6.368;2022-08-21T11:08:17;99961.25;;;25.06;44.88
15678;BME280;7939;50.814;6.368;2022-08-21T11:10:48;99960.31;;;25.07;44.91
15678;BME280;7939;50.814;6.368;2022-08-21T11:13:21;99960.97;;;25.11;44.12
15678;BME280;7939;50.814;6.368;2022-08-21T11:15:56;99953.88;;;25.13;44.42
15678;BME280;7939;50.814;6.368;2022-08-21T11:18:28;99941.38;;;25.18;44.50
15678;BME280;7939;50.814;6.368;2022-08-21T11:21:06;99949.91;;;25.21;44.30
15678;BME280;7939;50.814;6.368;2022-08-21T11:23:40;99951.34;;;25.27;44.14
15678;BME280;7939;50.814;6.368;2022-08-21T11:26:11;99952.72;;;25.33;44.28
15678;BME280;7939;50.814;6.368;2022-08-21T11:28:45;99953.41;;;25.36;43.79
15678;BME280;7939;50.814;6.368;2022-08-21T11:31:35;99947.22;;;25.37;43.39
15678;BME280;7939;50.814;6.368;2022-08-21T11:34:23;99941.84;;;25.40;43.61
15678;BME280;7939;50.814;6.368;2022-08-21T11:37:02;99943.25;;;25.46;43.25
15678;BME280;7939;50.814;6.368;2022-08-21T11:39:38;99947.25;;;25.51;43.50
15678;BME280;7939;50.814;6.368;2022-08-21T11:42:16;99944.63;;;25.51;42.84
15678;BME280;7939;50.814;6.368;2022-08-21T11:44:49;99950.53;;;25.55;43.24
15678;BME280;7939;50.814;6.368;2022-08-21T11:47:25;99949.34;;;25.61;43.34
15678;BME280;7939;50.814;6.368;2022-08-21T11:50:11;99950.19;;;25.61;42.43
15678;BME280;7939;50.814;6.368;2022-08-21T11:52:45;99944.00;;;25.62;42.18
15678;BME280;7939;50.814;6.368;2022-08-21T11:55:19;99947.31;;;25.66;42.42
15678;BME280;7939;50.814;6.368;2022-08-21T11:57:52;99944.69;;;25.66;42.35
15678;BME280;7939;50.814;6.368;2022-08-21T12:00:25;99942.81;;;25.68;42.16
15678;BME280;7939;50.814;6.368;2022-08-21T12:02:55;99939.00;;;25.73;42.03
15678;BME280;7939;50.814;6.368;2022-08-21T12:05:28;99939.09;;;25.72;42.00
15678;BME280;7939;50.814;6.368;2022-08-21T12:08:04;99936.28;;;25.75;41.50
15678;BME280;7939;50.814;6.368;2022-08-21T12:10:36;99924.03;;;25.75;41.19
15678;BME280;7939;50.814;6.368;2022-08-21T12:13:07;99927.50;;;25.76;40.99
15678;BME280;7939;50.814;6.368;2022-08-21T12:15:36;99927.50;;;25.76;41.32
15678;BME280;7939;50.814;6.368;2022-08-21T12:18:06;99929.13;;;25.78;41.37
15678;BME280;7939;50.814;6.368;2022-08-21T12:20:57;99924.63;;;25.80;41.22
15678;BME280;7939;50.814;6.368;2022-08-21T12:23:29;99936.13;;;25.78;41.82
15678;BME280;7939;50.814;6.368;2022-08-21T12:26:11;99928.16;;;25.79;41.51
15678;BME280;7939;50.814;6.368;2022-08-21T12:28:40;99933.41;;;25.79;41.74
15678;BME280;7939;50.814;6.368;2022-08-21T12:31:20;99942.22;;;25.78;42.00
15678;BME280;7939;50.814;6.368;2022-08-21T12:33:53;99939.38;;;25.81;41.81
15678;BME280;7939;50.814;6.368;2022-08-21T12:36:22;99935.00;;;25.82;41.57
15678;BME280;7939;50.814;6.368;2022-08-21T12:38:56;99925.56;;;25.79;41.52
15678;BME280;7939;50.814;6.368;2022-08-21T12:41:26;99932.38;;;25.82;41.57
15678;BME280;7939;50.814;6.368;2022-08-21T12:43:57;99935.81;;;25.82;41.41
15678;BME280;7939;50.814;6.368;2022-08-21T12:46:31;99923.78;;;25.80;40.99
15678;BME280;7939;50.814;6.368;2022-08-21T12:49:02;99940.16;;;25.84;41.21
15678;BME280;7939;50.814;6.368;2022-08-21T12:51:33;99930.78;;;25.79;40.33
15678;BME280;7939;50.814;6.368;2022-08-21T12:54:05;99930.59;;;25.82;40.50
15678;BME280;7939;50.814;6.368;2022-08-21T12:56:33;99926.13;;;25.85;40.45
15678;BME280;7939;50.814;6.368;2022-08-21T12:59:02;99921.91;;;25.82;40.57
15678;BME280;7939;50.814;6.368;2022-08-21T13:01:32;99919.22;;;25.84;40.66
15678;BME280;7939;50.814;6.368;2022-08-21T13:04:03;99916.75;;;25.80;40.32
15678;BME280;7939;50.814;6.368;2022-08-21T13:06:37;99929.69;;;25.84;40.98
15678;BME280;7939;50.814;6.368;2022-08-21T13:09:10;99914.81;;;25.84;40.72
15678;BME280;7939;50.814;6.368;2022-08-21T13:11:39;99912.94;;;25.86;40.95
15678;BME280;7939;50.814;6.368;2022-08-21T13:14:13;99915.44;;;25.88;40.95
15678;BME280;7939;50.814;6.368;2022-08-21T13:16:41;99915.44;;;25.88;41.15